createdAt,value
2018-08-16T00:04:33.000Z,1010.904
2018-08-16T00:14:33.000Z,1010.879
2018-08-16T00:24:33.000Z,1010.814
2018-08-16T00:34:33.000Z,1010.763
2018-08-16T00:44:34.000Z,1010.757
2018-08-16T00:54:34.000Z,1010.783
2018-08-16T01:04:34.000Z,1010.711
2018-08-16T01:14:34.000Z,1010.701
2018-08-16T01:24:34.000Z,1010.677
2018-08-16T01:34:34.000Z,1010.668
2018-08-16T01:44:34.000Z,1010.61
2018-08-16T01:54:34.000Z,1010.558
2018-08-16T02:04:34.000Z,1010.533
2018-08-16T02:14:34.000Z,1010.471
2018-08-16T02:24:34.000Z,1010.423
2018-08-16T02:34:34.000Z,1010.427
2018-08-16T02:44:34.000Z,1010.391
2018-08-16T02:54:34.000Z,1010.315
2018-08-16T03:04:34.000Z,1010.236
2018-08-16T03:14:34.000Z,1010.149
2018-08-16T03:24:34.000Z,1010.085
2018-08-16T03:34:34.000Z,1010.099
2018-08-16T03:44:34.000Z,1009.993
2018-08-16T03:54:34.000Z,1009.91
2018-08-16T04:04:34.000Z,1009.899
2018-08-16T04:14:34.000Z,1009.814
2018-08-16T04:24:34.000Z,1009.862
2018-08-16T04:34:34.000Z,1009.855
2018-08-16T04:44:34.000Z,1009.901
2018-08-16T04:54:34.000Z,1009.865
2018-08-16T05:04:34.000Z,1009.885
2018-08-16T05:14:34.000Z,1009.942
2018-08-16T05:24:34.000Z,1009.952
2018-08-16T05:34:34.000Z,1009.959
2018-08-16T05:44:34.000Z,1009.874
2018-08-16T05:54:34.000Z,1009.791
2018-08-16T06:04:34.000Z,1009.86
2018-08-16T06:14:34.000Z,1009.827
2018-08-16T06:24:34.000Z,1009.788
2018-08-16T06:34:34.000Z,1009.835
2018-08-16T06:44:34.000Z,1009.836
2018-08-16T06:54:34.000Z,1009.707
2018-08-16T07:04:34.000Z,1009.644
2018-08-16T07:14:34.000Z,1009.618
2018-08-16T07:24:34.000Z,1009.591
2018-08-16T07:34:34.000Z,1009.528
2018-08-16T07:44:34.000Z,1009.448
2018-08-16T07:54:34.000Z,1009.354
2018-08-16T08:04:34.000Z,1009.427
2018-08-16T08:14:34.000Z,1009.418
2018-08-16T08:24:34.000Z,1009.292
2018-08-16T08:34:34.000Z,1009.234
2018-08-16T08:44:34.000Z,1009.208
2018-08-16T08:54:35.000Z,1009.14
2018-08-16T09:04:35.000Z,1009.1
2018-08-16T09:14:35.000Z,1009.009
2018-08-16T09:24:35.000Z,1008.953
2018-08-16T09:34:35.000Z,1008.86
2018-08-16T09:44:35.000Z,1008.828
2018-08-16T09:54:35.000Z,1008.838
2018-08-16T10:04:35.000Z,1008.708
2018-08-16T10:14:35.000Z,1008.54
2018-08-16T10:24:35.000Z,1008.438
2018-08-16T10:34:35.000Z,1008.364
2018-08-16T10:44:35.000Z,1008.249
2018-08-16T10:54:35.000Z,1008.239
2018-08-16T11:04:35.000Z,1008.139
2018-08-16T11:14:35.000Z,1008.137
2018-08-16T11:24:35.000Z,1008.067
2018-08-16T11:34:35.000Z,1007.984
2018-08-16T11:44:35.000Z,1007.975
2018-08-16T11:54:35.000Z,1007.865
2018-08-16T12:04:35.000Z,1007.767
2018-08-16T12:14:35.000Z,1007.656
2018-08-16T12:24:35.000Z,1007.682
2018-08-16T12:34:35.000Z,1007.623
2018-08-16T12:44:35.000Z,1007.486
2018-08-16T12:54:35.000Z,1007.384
2018-08-16T13:04:35.000Z,1007.28
2018-08-16T13:14:35.000Z,1007.196
2018-08-16T13:24:35.000Z,1007.081
2018-08-16T13:34:35.000Z,1007.056
2018-08-16T13:44:35.000Z,1006.982
2018-08-16T13:54:35.000Z,1006.969
2018-08-16T14:04:35.000Z,1006.84
2018-08-16T14:14:35.000Z,1006.753
2018-08-16T14:24:35.000Z,1006.731
2018-08-16T14:34:35.000Z,1006.774
2018-08-16T14:44:35.000Z,1006.71
2018-08-16T14:54:35.000Z,1006.702
2018-08-16T15:04:35.000Z,1006.748
2018-08-16T15:14:35.000Z,1006.66
2018-08-16T15:24:35.000Z,1006.574
2018-08-16T15:34:35.000Z,1006.61
2018-08-16T15:44:35.000Z,1006.565
2018-08-16T15:54:35.000Z,1006.558
2018-08-16T16:04:35.000Z,1006.5
2018-08-16T16:24:35.000Z,1006.557
2018-08-16T16:34:35.000Z,1006.442
2018-08-16T16:44:37.000Z,1006.426
2018-08-16T16:54:35.000Z,1006.413
2018-08-16T17:04:36.000Z,1006.424
2018-08-16T17:14:36.000Z,1006.427
2018-08-16T17:24:36.000Z,1006.469
2018-08-16T17:34:36.000Z,1006.501
2018-08-16T17:44:36.000Z,1006.531
2018-08-16T17:54:36.000Z,1006.578
2018-08-16T18:04:36.000Z,1006.641
2018-08-16T18:14:36.000Z,1006.693
2018-08-16T18:24:36.000Z,1006.802
2018-08-16T18:34:36.000Z,1006.868
2018-08-16T18:44:36.000Z,1006.859
2018-08-16T18:54:36.000Z,1006.967
2018-08-16T19:04:36.000Z,1007.115
2018-08-16T19:24:37.000Z,1007.138
2018-08-16T19:34:36.000Z,1007.13
2018-08-16T19:44:36.000Z,1007.203
2018-08-16T19:54:36.000Z,1007.106
2018-08-16T20:04:36.000Z,1006.994
2018-08-16T20:14:36.000Z,1006.921
2018-08-16T20:24:36.000Z,1006.863
2018-08-16T20:34:36.000Z,1006.922
2018-08-16T20:44:36.000Z,1007.109
2018-08-16T20:54:36.000Z,1007.061
2018-08-16T21:04:36.000Z,1007.135
2018-08-16T21:14:36.000Z,1007.216
2018-08-16T21:24:36.000Z,1007.164
2018-08-16T21:34:36.000Z,1007.211
2018-08-16T21:44:36.000Z,1007.237
2018-08-16T21:54:36.000Z,1007.358
2018-08-16T22:04:36.000Z,1007.368
2018-08-16T22:14:36.000Z,1007.43
2018-08-16T22:24:36.000Z,1007.394
2018-08-16T22:34:36.000Z,1007.427
2018-08-16T22:44:36.000Z,1007.388
2018-08-16T22:54:36.000Z,1007.354
2018-08-16T23:04:36.000Z,1007.251
2018-08-16T23:14:36.000Z,1007.145
2018-08-16T23:24:36.000Z,1007.165
2018-08-16T23:34:36.000Z,1007.059
2018-08-16T23:44:36.000Z,1007.1
2018-08-16T23:54:36.000Z,1006.971
